Time;durP1;ratioP1;P1;durP2;ratioP2;P2;SDS_P1;SDS_P2;PMS_P1;PMS_P2;Temp;Humidity;BMP_temperature;BMP_pressure;BME280_temperature;BME280_humidity;BME280_pressure;Samples;Min_cycle;Max_cycle;Signal;HPM_P1;HPM_P2
2023/10/16 00:01:31;;;;;;;;;;;;;;;25.39;43.82;94534.25;4992998;28;7001;-55
2023/10/16 00:03:57;;;;;;;;;;;;;;;25.41;43.89;94534.50;5034906;28;6980;-55
2023/10/16 00:06:25;;;;;;;;;;;;;;;25.39;43.61;94528.75;5024304;28;9470;-55
2023/10/16 00:08:53;;;;;;;;;;;;;;;25.40;43.77;94539.25;5053437;28;9063;-55
2023/10/16 00:11:25;;;;;;;;;;;;;;;25.41;43.34;94534.50;5054301;28;7237;-55
2023/10/16 00:13:52;;;;;;;;;;;;;;;25.38;43.93;94530.03;5055951;28;9273;-54
2023/10/16 00:16:28;;;;;;;;;;;;;;;25.37;43.12;94517.50;5049926;28;7072;-53
2023/10/16 00:18:57;;;;;;;;;;;;;;;25.38;43.80;94522.50;5060935;28;9126;-55
2023/10/16 00:21:24;;;;;;;;;;;;;;;25.41;42.97;94523.50;5066273;28;7619;-55
2023/10/16 00:23:50;;;;;;;;;;;;;;;25.39;43.46;94513.00;5066710;28;8784;-55
2023/10/16 00:26:21;;;;;;;;;;;;;;;25.40;43.28;94516.50;5061909;28;9047;-54
2023/10/16 00:31:42;;;;;;;;;;;;;;;25.38;43.09;94516.25;5068885;28;8755;-55
2023/10/16 00:34:21;;;;;;;;;;;;;;;25.40;42.96;94516.50;5062494;28;9342;-55
2023/10/16 00:36:51;;;;;;;;;;;;;;;25.35;43.33;94514.50;5052689;28;9742;-55
2023/10/16 00:39:28;;;;;;;;;;;;;;;25.38;43.81;94511.47;5049211;28;7038;-55
2023/10/16 00:41:59;;;;;;;;;;;;;;;25.37;43.42;94507.25;5048559;28;7316;-55
2023/10/16 00:44:33;;;;;;;;;;;;;;;25.36;43.10;94504.97;5062282;28;7344;-54
2023/10/16 00:47:17;;;;;;;;;;;;;;;25.36;42.95;94507.72;5048224;28;7214;-55
2023/10/16 00:49:45;;;;;;;;;;;;;;;25.35;43.59;94501.50;5052395;28;7259;-55
2023/10/16 00:52:14;;;;;;;;;;;;;;;25.34;43.06;94499.22;5076872;28;7062;-55
2023/10/16 00:54:47;;;;;;;;;;;;;;;25.35;43.51;94495.22;5058700;28;8950;-62
2023/10/16 00:57:17;;;;;;;;;;;;;;;25.37;43.01;94489.97;5059506;28;9396;-62
2023/10/16 00:59:43;;;;;;;;;;;;;;;25.36;43.82;94483.69;5042749;28;8832;-62
2023/10/16 01:02:14;;;;;;;;;;;;;;;25.36;43.04;94482.94;5042728;28;7224;-62
2023/10/16 01:04:42;;;;;;;;;;;;;;;25.35;43.43;94481.47;5065794;28;7435;-62
2023/10/16 01:07:14;;;;;;;;;;;;;;;25.34;42.89;94485.47;5060129;28;7081;-62
2023/10/16 01:09:40;;;;;;;;;;;;;;;25.32;43.25;94485.22;5073645;28;8784;-63
2023/10/16 01:12:07;;;;;;;;;;;;;;;25.26;43.88;94477.00;5048113;28;7232;-63
2023/10/16 01:14:37;;;;;;;;;;;;;;;25.29;43.95;94483.50;5061528;28;7400;-62
2023/10/16 01:17:08;;;;;;;;;;;;;;;25.29;43.70;94475.97;5074664;28;8888;-62
2023/10/16 01:19:41;;;;;;;;;;;;;;;25.30;43.16;94484.97;5065089;28;7031;-63
2023/10/16 01:22:11;;;;;;;;;;;;;;;25.29;43.17;94472.47;5043998;28;8570;-62
2023/10/16 01:24:43;;;;;;;;;;;;;;;25.29;43.61;94475.97;5061238;28;8714;-62
2023/10/16 01:27:14;;;;;;;;;;;;;;;25.29;43.25;94475.97;5065940;28;7259;-62
2023/10/16 01:29:49;;;;;;;;;;;;;;;25.28;43.23;94468.22;5045466;28;8193;-63
2023/10/16 01:32:15;;;;;;;;;;;;;;;25.29;43.57;94461.47;5044214;28;7518;-63
2023/10/16 01:34:41;;;;;;;;;;;;;;;25.25;43.07;94464.47;5052159;28;7194;-63
2023/10/16 01:37:12;;;;;;;;;;;;;;;25.29;43.86;94466.97;5059759;28;9509;-62
2023/10/16 01:39:53;;;;;;;;;;;;;;;25.28;43.70;94463.47;5047865;28;9319;-62
2023/10/16 01:42:27;;;;;;;;;;;;;;;25.25;43.54;94466.50;5053708;28;9437;-62
2023/10/16 01:44:56;;;;;;;;;;;;;;;25.23;43.86;94460.72;5054340;28;7275;-63
2023/10/16 01:47:22;;;;;;;;;;;;;;;25.21;43.41;94460.47;5073203;28;6991;-62
2023/10/16 01:49:48;;;;;;;;;;;;;;;25.22;43.45;94459.25;5062169;28;7225;-62
2023/10/16 01:52:19;;;;;;;;;;;;;;;25.23;42.94;94460.72;5078878;28;9174;-62
2023/10/16 01:54:53;;;;;;;;;;;;;;;25.20;43.11;94454.25;5051736;28;6961;-63
2023/10/16 01:57:35;;;;;;;;;;;;;;;25.18;44.02;94445.75;5065371;28;6999;-63
2023/10/16 02:00:06;;;;;;;;;;;;;;;25.20;43.47;94445.25;5067937;28;9200;-62
2023/10/16 02:02:39;;;;;;;;;;;;;;;25.17;43.21;94436.00;5043771;28;7223;-62
2023/10/16 02:05:14;;;;;;;;;;;;;;;25.20;44.00;94439.72;5052959;28;7233;-52
2023/10/16 02:07:55;;;;;;;;;;;;;;;25.20;43.85;94439.72;5065992;28;7422;-55
2023/10/16 02:10:24;;;;;;;;;;;;;;;25.17;43.58;94430.47;5075139;28;9038;-54
2023/10/16 02:12:58;;;;;;;;;;;;;;;25.17;43.08;94426.97;5061847;28;7433;-55
2023/10/16 02:15:25;;;;;;;;;;;;;;;25.16;43.65;94426.25;5083076;28;7057;-55
2023/10/16 02:17:55;;;;;;;;;;;;;;;25.15;43.58;94427.50;5061542;28;7057;-54
2023/10/16 02:20:26;;;;;;;;;;;;;;;25.13;43.81;94418.25;5054092;28;6931;-55
2023/10/16 02:23:06;;;;;;;;;;;;;;;25.15;43.46;94415.72;5054403;28;9122;-55
2023/10/16 02:25:46;;;;;;;;;;;;;;;25.14;43.76;94409.47;5075196;28;8209;-54
2023/10/16 02:28:19;;;;;;;;;;;;;;;25.11;44.08;94407.75;5043416;28;7307;-55
2023/10/16 02:30:49;;;;;;;;;;;;;;;25.12;43.69;94403.72;5054371;28;6984;-54
2023/10/16 02:33:30;;;;;;;;;;;;;;;25.13;43.52;94407.22;5060535;28;8903;-55
2023/10/16 02:36:08;;;;;;;;;;;;;;;25.10;43.86;94400.00;5058128;28;7189;-55
2023/10/16 02:38:47;;;;;;;;;;;;;;;25.12;43.89;94409.22;5037860;28;7251;-55
2023/10/16 02:41:19;;;;;;;;;;;;;;;25.12;43.87;94403.72;5068431;28;7491;-55
2023/10/16 02:43:47;;;;;;;;;;;;;;;25.12;43.97;94405.75;5038265;28;9433;-55
2023/10/16 02:46:24;;;;;;;;;;;;;;;25.13;43.19;94404.47;5053967;28;9323;-55
2023/10/16 02:48:55;;;;;;;;;;;;;;;25.14;43.52;94403.22;5040674;28;9023;-54
2023/10/16 02:51:28;;;;;;;;;;;;;;;25.14;44.09;94401.22;5063979;28;7207;-54
2023/10/16 02:53:55;;;;;;;;;;;;;;;25.15;44.06;94393.72;5062013;28;7257;-55
2023/10/16 02:56:44;;;;;;;;;;;;;;;25.13;43.83;94393.47;5071925;28;7088;-53
2023/10/16 02:59:26;;;;;;;;;;;;;;;25.12;44.02;94387.22;5061063;28;6996;-55
2023/10/16 03:01:56;;;;;;;;;;;;;;;25.11;43.17;94391.22;5041054;28;7142;-54
2023/10/16 03:04:27;;;;;;;;;;;;;;;25.13;44.04;94390.72;5071079;28;7040;-55
2023/10/16 03:06:54;;;;;;;;;;;;;;;25.10;43.60;94381.47;5076365;28;8777;-55
2023/10/16 03:09:34;;;;;;;;;;;;;;;25.10;43.44;94386.97;5062024;28;7052;-55
2023/10/16 03:12:29;;;;;;;;;;;;;;;25.10;44.08;94378.72;5063019;28;9091;-55
2023/10/16 03:15:20;;;;;;;;;;;;;;;25.09;43.27;94384.72;5047014;28;7078;-61
2023/10/16 03:17:55;;;;;;;;;;;;;;;25.10;43.85;94383.50;5042817;28;7537;-61
2023/10/16 03:20:35;;;;;;;;;;;;;;;25.07;43.81;94377.00;5039700;28;7788;-62
2023/10/16 03:23:07;;;;;;;;;;;;;;;25.09;44.16;94379.22;5028403;28;7324;-61
2023/10/16 03:28:14;;;;;;;;;;;;;;;25.07;44.12;94385.25;5059549;28;6996;-61
2023/10/16 03:30:51;;;;;;;;;;;;;;;25.07;44.25;94388.00;5038148;28;7186;-61
2023/10/16 03:33:36;;;;;;;;;;;;;;;25.09;43.30;94387.47;5043824;28;8810;-61
2023/10/16 03:36:09;;;;;;;;;;;;;;;25.08;43.67;94383.22;5016548;28;7900;-61
2023/10/16 03:38:37;;;;;;;;;;;;;;;25.08;43.77;94397.75;5036183;28;9518;-62
2023/10/16 03:41:48;;;;;;;;;;;;;;;25.08;43.68;94388.72;5054066;28;6986;-61
2023/10/16 03:44:06;;;;;;;;;;;;;;;25.04;44.08;94382.75;5047921;28;9085;-62
2023/10/16 03:46:33;;;;;;;;;;;;;;;25.08;44.02;94389.47;5023962;28;7004;-62
2023/10/16 03:49:05;;;;;;;;;;;;;;;25.07;44.03;94388.00;5038026;28;7052;-62
2023/10/16 03:51:38;;;;;;;;;;;;;;;25.04;43.59;94382.75;5036190;28;7526;-61
2023/10/16 03:54:16;;;;;;;;;;;;;;;25.06;43.47;94392.00;5052931;28;7166;-61
2023/10/16 03:57:09;;;;;;;;;;;;;;;25.05;43.95;94385.00;5063915;28;8742;-62
2023/10/16 03:59:58;;;;;;;;;;;;;;;25.06;44.22;94381.00;5074129;28;8595;-62
2023/10/16 04:02:31;;;;;;;;;;;;;;;25.05;43.57;94390.50;5037062;28;8970;-62
2023/10/16 04:05:29;;;;;;;;;;;;;;;25.04;43.75;94382.75;5055644;28;7186;-61
2023/10/16 04:07:54;;;;;;;;;;;;;;;25.05;43.89;94378.75;5064265;28;7199;-61
2023/10/16 04:10:31;;;;;;;;;;;;;;;25.04;43.39;94375.25;5050501;28;7568;-61
2023/10/16 04:13:00;;;;;;;;;;;;;;;25.05;43.13;94378.75;5066670;28;7028;-62
2023/10/16 04:18:28;;;;;;;;;;;;;;;25.04;44.03;94374.50;5072334;28;7310;-62
2023/10/16 04:32:40;;;;;;;;;;;;;;;24.98;43.34;94355.28;5026549;28;7245;-57
2023/10/16 04:38:27;;;;;;;;;;;;;;;25.01;43.56;94361.75;5012814;28;8735;-56
2023/10/16 04:46:55;;;;;;;;;;;;;;;25.00;44.06;94357.50;5029537;28;7013;-56
2023/10/16 04:49:28;;;;;;;;;;;;;;;25.00;43.36;94360.25;4998428;28;7336;-56
2023/10/16 04:52:07;;;;;;;;;;;;;;;24.95;43.35;94347.25;5013434;28;8959;-56
2023/10/16 04:54:58;;;;;;;;;;;;;;;24.98;44.19;94349.75;5011177;28;8802;-56
2023/10/16 04:59:59;;;;;;;;;;;;;;;24.98;44.08;94340.75;5020212;28;7239;-56
2023/10/16 05:02:52;;;;;;;;;;;;;;;24.96;44.03;94338.53;5016355;28;7681;-56
2023/10/16 05:05:56;;;;;;;;;;;;;;;24.98;43.58;94343.50;5046312;28;9580;-56
2023/10/16 05:08:38;;;;;;;;;;;;;;;24.97;43.70;94342.03;5070578;28;8765;-56
2023/10/16 05:13:55;;;;;;;;;;;;;;;24.93;44.16;94341.53;5062950;28;7470;-56
2023/10/16 05:19:03;;;;;;;;;;;;;;;24.94;43.62;94343.78;5064539;28;6904;-56
2023/10/16 06:15:27;;;;;;;;;;;;;;;24.86;43.54;94348.31;4959132;28;9614;-55
2023/10/16 06:18:06;;;;;;;;;;;;;;;24.86;43.49;94348.31;4946928;28;7350;-55
2023/10/16 06:20:37;;;;;;;;;;;;;;;24.84;43.47;94341.84;4941852;28;8908;-54
2023/10/16 06:23:19;;;;;;;;;;;;;;;24.83;44.00;94346.59;4933641;28;6992;-54
2023/10/16 06:25:55;;;;;;;;;;;;;;;24.86;43.66;94353.06;4960211;28;7359;-55
2023/10/16 06:28:23;;;;;;;;;;;;;;;24.82;43.89;94347.81;4944992;28;7447;-53
2023/10/16 06:30:54;;;;;;;;;;;;;;;24.83;43.97;94354.84;4937833;28;7247;-55
2023/10/16 06:33:31;;;;;;;;;;;;;;;24.83;43.63;94356.84;4945198;28;8759;-55
2023/10/16 06:36:06;;;;;;;;;;;;;;;24.81;43.39;94349.09;4954422;28;7444;-54
2023/10/16 06:38:51;;;;;;;;;;;;;;;24.84;43.79;94361.09;4929705;28;7226;-52
2023/10/16 06:41:29;;;;;;;;;;;;;;;24.80;43.94;94357.84;4968822;28;9146;-54
2023/10/16 06:44:03;;;;;;;;;;;;;;;24.84;43.87;94369.34;4977519;28;7223;-62
2023/10/16 06:46:45;;;;;;;;;;;;;;;24.83;43.92;94367.84;4997321;28;7082;-62
2023/10/16 06:49:26;;;;;;;;;;;;;;;24.84;44.11;94361.09;5010061;28;9012;-62
2023/10/16 06:51:56;;;;;;;;;;;;;;;24.83;43.96;94363.09;5067713;28;7162;-62
2023/10/16 06:54:25;;;;;;;;;;;;;;;24.83;43.67;94363.09;5063752;28;7286;-62
2023/10/16 06:57:12;;;;;;;;;;;;;;;24.82;43.52;94363.56;5044623;28;7294;-62
2023/10/16 06:59:50;;;;;;;;;;;;;;;24.83;44.35;94362.34;5047157;28;7043;-62
2023/10/16 07:02:19;;;;;;;;;;;;;;;24.82;43.61;94366.31;5089415;28;9341;-62
2023/10/16 07:04:50;;;;;;;;;;;;;;;24.81;43.46;94360.09;5074667;28;7259;-62
2023/10/16 07:07:22;;;;;;;;;;;;;;;24.82;43.86;94377.31;5072281;28;7138;-61
2023/10/16 07:10:01;;;;;;;;;;;;;;;24.78;44.20;94368.59;5097118;28;7349;-62
2023/10/16 07:12:28;;;;;;;;;;;;;;;24.81;44.25;94362.84;5044937;28;7230;-62
2023/10/16 07:14:55;;;;;;;;;;;;;;;24.78;43.43;94368.59;5062172;28;8736;-62
2023/10/16 07:17:28;;;;;;;;;;;;;;;24.80;44.28;94360.59;5082429;28;9256;-62
2023/10/16 07:20:00;;;;;;;;;;;;;;;24.81;43.23;94373.09;5047231;28;7265;-62
2023/10/16 07:22:32;;;;;;;;;;;;;;;24.79;43.82;94361.84;5036033;28;6872;-62
2023/10/16 07:28:28;;;;;;;;;;;;;;;24.78;43.39;94371.34;5002935;28;7235;-62
2023/10/16 07:31:12;;;;;;;;;;;;;;;24.77;44.09;94361.63;4900356;29;7512;-62
2023/10/16 07:34:17;;;;;;;;;;;;;;;24.80;44.39;94368.84;4916353;29;7041;-62
2023/10/16 07:36:55;;;;;;;;;;;;;;;24.80;43.91;94374.34;4917878;29;7574;-62
2023/10/16 07:39:22;;;;;;;;;;;;;;;24.79;43.89;94368.09;4913790;29;8536;-62
2023/10/16 07:42:01;;;;;;;;;;;;;;;24.73;43.61;94361.81;4915546;29;7011;-61
2023/10/16 07:44:56;;;;;;;;;;;;;;;24.78;43.56;94363.84;4915702;29;7206;-62
2023/10/16 07:47:32;;;;;;;;;;;;;;;24.75;44.08;94356.59;4861358;29;7838;-62
2023/10/16 07:50:08;;;;;;;;;;;;;;;24.78;43.85;94360.34;4861146;29;8855;-62
2023/10/16 07:52:37;;;;;;;;;;;;;;;24.80;43.55;94361.34;4879502;29;7093;-62
2023/10/16 07:55:05;;;;;;;;;;;;;;;24.80;44.07;94363.34;4845143;29;7139;-61
2023/10/16 07:57:35;;;;;;;;;;;;;;;24.78;43.36;94361.09;4873853;29;7865;-61
2023/10/16 08:00:25;;;;;;;;;;;;;;;24.79;43.30;94359.09;4878520;29;7457;-61
2023/10/16 08:03:05;;;;;;;;;;;;;;;24.77;44.22;94356.88;4879411;29;7524;-61
2023/10/16 08:05:33;;;;;;;;;;;;;;;24.76;43.43;94365.59;4890349;28;8977;-62
2023/10/16 08:08:00;;;;;;;;;;;;;;;24.79;44.36;94370.09;4953607;28;7362;-61
2023/10/16 08:10:41;;;;;;;;;;;;;;;24.79;43.56;94372.84;4960036;28;6996;-61
2023/10/16 08:13:11;;;;;;;;;;;;;;;24.75;43.41;94364.13;4979288;28;9127;-61
2023/10/16 08:15:51;;;;;;;;;;;;;;;24.78;43.23;94368.59;4958015;28;8925;-61
2023/10/16 08:18:32;;;;;;;;;;;;;;;24.76;44.23;94368.34;4952177;28;7136;-62
2023/10/16 08:21:05;;;;;;;;;;;;;;;24.73;43.45;94370.84;4950029;28;7041;-62
2023/10/16 08:23:34;;;;;;;;;;;;;;;24.76;44.21;94376.59;4991590;28;7009;-61
2023/10/16 08:28:54;;;;;;;;;;;;;;;24.76;43.84;94374.63;5065874;28;10736;-61
2023/10/16 08:31:23;;;;;;;;;;;;;;;24.77;44.07;94380.88;5050250;28;9059;-61
2023/10/16 08:33:55;;;;;;;;;;;;;;;24.76;44.11;94373.84;5037180;28;9125;-62
2023/10/16 08:36:23;;;;;;;;;;;;;;;24.75;43.69;94373.09;5047630;28;7258;-62
2023/10/16 08:38:55;;;;;;;;;;;;;;;24.76;43.82;94373.84;5083896;28;7075;-61
2023/10/16 08:41:51;;;;;;;;;;;;;;;24.73;43.38;94376.34;5067522;28;8758;-62
2023/10/16 08:44:17;;;;;;;;;;;;;;;24.73;43.50;94378.34;5056680;28;7649;-61
2023/10/16 08:49:25;;;;;;;;;;;;;;;24.74;43.69;94371.59;5053591;28;7221;-61
2023/10/16 08:52:20;;;;;;;;;;;;;;;24.76;44.38;94390.34;5062953;28;7050;-62
2023/10/16 08:57:19;;;;;;;;;;;;;;;24.75;44.01;94388.88;5063596;28;7268;-62
2023/10/16 09:00:19;;;;;;;;;;;;;;;24.76;44.27;94387.59;5081889;28;6972;-61
2023/10/16 09:02:51;;;;;;;;;;;;;;;24.76;44.19;94384.84;5069388;28;7245;-61
2023/10/16 09:05:20;;;;;;;;;;;;;;;24.76;43.50;94380.09;5067729;28;7274;-63
2023/10/16 09:07:52;;;;;;;;;;;;;;;24.77;43.78;94386.38;5039487;28;9046;-63
2023/10/16 09:10:24;;;;;;;;;;;;;;;24.77;44.29;94387.13;5051658;28;7240;-63
2023/10/16 09:13:13;;;;;;;;;;;;;;;24.77;44.05;94386.38;5049739;28;8970;-63
2023/10/16 09:15:47;;;;;;;;;;;;;;;24.76;43.76;94382.88;5063367;28;8991;-63
2023/10/16 09:18:17;;;;;;;;;;;;;;;24.75;43.51;94386.13;5048792;28;8929;-63
2023/10/16 09:20:49;;;;;;;;;;;;;;;24.76;43.28;94390.34;5076075;28;6867;-63
2023/10/16 09:23:23;;;;;;;;;;;;;;;24.76;44.21;94384.84;5061566;28;8701;-62
2023/10/16 09:25:56;;;;;;;;;;;;;;;24.76;43.98;94385.63;5044582;28;6985;-62
2023/10/16 09:28:23;;;;;;;;;;;;;;;24.76;44.31;94384.84;5058328;28;8819;-62
2023/10/16 09:30:54;;;;;;;;;;;;;;;24.77;43.84;94376.13;5074647;28;7204;-63
2023/10/16 09:33:20;;;;;;;;;;;;;;;24.78;44.23;94379.59;5052192;28;8744;-63
2023/10/16 09:35:46;;;;;;;;;;;;;;;24.77;43.70;94378.13;5068701;28;7369;-62
2023/10/16 09:38:17;;;;;;;;;;;;;;;24.79;43.67;94381.09;5052862;28;7842;-62
2023/10/16 09:43:56;;;;;;;;;;;;;;;24.80;43.29;94368.84;5062534;28;9106;-62
2023/10/16 09:49:21;;;;;;;;;;;;;;;24.79;43.31;94367.34;5055064;28;7243;-62
2023/10/16 09:52:04;;;;;;;;;;;;;;;24.81;43.21;94362.84;5053432;28;7336;-62
2023/10/16 09:54:31;;;;;;;;;;;;;;;24.80;44.02;94358.59;5057364;28;8428;-61
2023/10/16 09:56:59;;;;;;;;;;;;;;;24.81;43.28;94359.34;5065395;28;7261;-62
2023/10/16 09:59:31;;;;;;;;;;;;;;;24.82;43.38;94361.56;5053255;28;9216;-62
2023/10/16 10:02:18;;;;;;;;;;;;;;;24.84;43.67;94361.09;5055733;28;7253;-62
2023/10/16 10:05:09;;;;;;;;;;;;;;;24.82;43.65;94349.81;5037083;28;7904;-62
2023/10/16 10:07:51;;;;;;;;;;;;;;;24.81;44.08;94362.09;5037800;28;8773;-62
2023/10/16 10:13:16;;;;;;;;;;;;;;;24.82;44.09;94350.56;5052561;28;7326;-62
2023/10/16 10:15:53;;;;;;;;;;;;;;;24.79;43.82;94354.34;5068287;28;9393;-64
2023/10/16 10:18:42;;;;;;;;;;;;;;;24.83;44.31;94359.59;5054359;28;7234;-64
2023/10/16 10:21:44;;;;;;;;;;;;;;;24.84;44.01;94353.56;5071496;28;7288;-64
2023/10/16 10:24:30;;;;;;;;;;;;;;;24.87;43.20;94354.56;5006484;28;9128;-64
2023/10/16 10:27:03;;;;;;;;;;;;;;;24.87;44.40;94357.31;5030792;28;7089;-64
2023/10/16 10:29:32;;;;;;;;;;;;;;;24.88;43.29;94350.56;4998434;28;7312;-64
2023/10/16 10:32:12;;;;;;;;;;;;;;;24.86;44.31;94344.81;5009437;28;7141;-64
2023/10/16 10:34:43;;;;;;;;;;;;;;;24.91;44.16;94349.53;5014273;28;8836;-64
2023/10/16 10:37:45;;;;;;;;;;;;;;;24.91;43.23;94347.53;5006578;28;6986;-64
2023/10/16 10:40:24;;;;;;;;;;;;;;;24.92;43.65;94337.28;5007777;28;6997;-64
2023/10/16 10:43:03;;;;;;;;;;;;;;;24.87;43.50;94336.06;5003284;28;7279;-64
2023/10/16 10:45:34;;;;;;;;;;;;;;;24.86;44.11;94326.28;5011672;28;7496;-64
2023/10/16 10:48:09;;;;;;;;;;;;;;;24.86;43.63;94328.31;5001993;28;7878;-64
2023/10/16 10:50:56;;;;;;;;;;;;;;;24.86;43.96;94322.81;5004970;28;6989;-64
2023/10/16 10:53:24;;;;;;;;;;;;;;;24.90;44.38;94329.56;4996251;28;9112;-64
2023/10/16 10:55:59;;;;;;;;;;;;;;;24.91;43.42;94324.78;5011554;28;7328;-64
2023/10/16 10:58:31;;;;;;;;;;;;;;;24.89;44.06;94321.78;4995233;28;9198;-64
2023/10/16 11:01:16;;;;;;;;;;;;;;;24.94;43.45;94321.03;5014247;28;7054;-64
2023/10/16 11:03:45;;;;;;;;;;;;;;;24.92;43.16;94315.28;5041374;28;8997;-64
2023/10/16 11:06:41;;;;;;;;;;;;;;;24.94;43.88;94323.78;5014383;28;6979;-64
2023/10/16 11:09:12;;;;;;;;;;;;;;;24.94;43.81;94312.75;4993227;28;8233;-64
2023/10/16 11:11:51;;;;;;;;;;;;;;;24.95;44.31;94311.50;4977201;28;8857;-64
2023/10/16 11:14:17;;;;;;;;;;;;;;;24.94;43.48;94318.28;4953420;28;8802;-64
2023/10/16 11:16:54;;;;;;;;;;;;;;;24.92;44.00;94309.78;5028240;28;9373;-64
2023/10/16 11:19:28;;;;;;;;;;;;;;;24.92;44.43;94301.53;5009339;28;9079;-64
2023/10/16 11:21:56;;;;;;;;;;;;;;;24.91;44.03;94300.75;5004005;28;8758;-64
2023/10/16 11:24:31;;;;;;;;;;;;;;;24.93;44.48;94298.25;4996411;28;8722;-62
2023/10/16 11:27:01;;;;;;;;;;;;;;;24.95;43.40;94303.25;5017256;28;8925;-62
2023/10/16 11:29:42;;;;;;;;;;;;;;;24.97;44.23;94292.50;5012240;28;8038;-62
2023/10/16 11:32:14;;;;;;;;;;;;;;;24.96;43.70;94297.25;5019848;28;9398;-62
2023/10/16 11:35:15;;;;;;;;;;;;;;;24.96;44.08;94282.75;5037499;28;6964;-62
2023/10/16 11:37:50;;;;;;;;;;;;;;;24.96;43.62;94280.00;4992875;28;6994;-62
2023/10/16 11:40:19;;;;;;;;;;;;;;;24.98;44.12;94277.47;4984379;28;8737;-62
2023/10/16 11:42:47;;;;;;;;;;;;;;;24.99;43.62;94267.97;4978385;28;8753;-62
2023/10/16 11:45:23;;;;;;;;;;;;;;;24.98;44.06;94264.47;4997985;28;7338;-62
2023/10/16 11:50:51;;;;;;;;;;;;;;;25.02;44.23;94264.19;5036168;28;7291;-62
2023/10/16 11:53:25;;;;;;;;;;;;;;;25.02;44.33;94259.44;5000722;28;8999;-62
2023/10/16 11:55:51;;;;;;;;;;;;;;;25.02;43.74;94250.44;5021792;28;7673;-62
2023/10/16 11:58:19;;;;;;;;;;;;;;;25.02;44.36;94251.19;5015360;28;8770;-62
2023/10/16 12:00:53;;;;;;;;;;;;;;;25.03;43.89;94249.94;5011357;28;9204;-62
2023/10/16 12:03:23;;;;;;;;;;;;;;;25.05;44.06;94252.16;5017514;28;9062;-62
2023/10/16 12:05:59;;;;;;;;;;;;;;;25.05;44.02;94241.91;5023667;28;7002;-62
2023/10/16 12:08:25;;;;;;;;;;;;;;;25.10;44.13;94243.13;5021825;28;9103;-62
2023/10/16 12:11:07;;;;;;;;;;;;;;;25.12;44.23;94243.38;5017929;28;6965;-62
2023/10/16 12:13:34;;;;;;;;;;;;;;;25.13;44.15;94231.84;5017470;28;7254;-61
2023/10/16 12:16:05;;;;;;;;;;;;;;;25.13;43.99;94228.34;5066728;28;8840;-62
2023/10/16 12:18:33;;;;;;;;;;;;;;;25.16;43.59;94235.59;5069618;28;7629;-62
2023/10/16 12:21:06;;;;;;;;;;;;;;;25.21;43.84;94226.53;5045914;28;8467;-62
2023/10/16 12:24:07;;;;;;;;;;;;;;;25.24;43.96;94223.50;5065001;28;8716;-62
2023/10/16 12:27:06;;;;;;;;;;;;;;;25.27;44.30;94214.22;5029215;28;9434;-62
2023/10/16 12:30:04;;;;;;;;;;;;;;;25.27;44.22;94219.00;4934314;29;7225;-62
2023/10/16 12:32:32;;;;;;;;;;;;;;;25.32;44.27;94204.41;4914444;29;7392;-62
2023/10/16 12:35:18;;;;;;;;;;;;;;;25.35;43.85;94197.88;4893543;29;7251;-62
2023/10/16 12:37:55;;;;;;;;;;;;;;;25.34;44.22;94196.38;4909469;29;7280;-62
2023/10/16 12:40:37;;;;;;;;;;;;;;;25.35;43.56;94189.63;4893542;29;6991;-62
2023/10/16 12:43:12;;;;;;;;;;;;;;;25.35;44.21;94184.88;4907961;29;7279;-62
2023/10/16 12:45:40;;;;;;;;;;;;;;;25.37;43.55;94187.84;4896037;29;7304;-61
2023/10/16 12:48:09;;;;;;;;;;;;;;;25.40;43.38;94188.84;4907447;29;7204;-62
2023/10/16 12:50:47;;;;;;;;;;;;;;;25.38;43.39;94170.06;4913531;29;7249;-62
2023/10/16 12:53:23;;;;;;;;;;;;;;;25.41;44.17;94177.31;4915118;29;9154;-62
2023/10/16 12:56:17;;;;;;;;;;;;;;;25.46;43.50;94175.03;4906194;29;7272;-62
2023/10/16 12:59:04;;;;;;;;;;;;;;;25.47;44.13;94168.28;4912731;29;8708;-62
2023/10/16 13:01:31;;;;;;;;;;;;;;;25.48;43.48;94170.50;4899109;29;7171;-62
2023/10/16 13:04:33;;;;;;;;;;;;;;;25.48;43.27;94161.50;4934042;28;7189;-62
2023/10/16 13:06:48;;;;;;;;;;;;;;;25.54;43.26;94160.19;4993151;28;7023;-62
2023/10/16 13:09:18;;;;;;;;;;;;;;;25.54;43.77;94165.69;5047243;28;7511;-62
2023/10/16 13:12:18;;;;;;;;;;;;;;;25.56;43.07;94165.16;5054558;28;7448;-62
2023/10/16 13:14:49;;;;;;;;;;;;;;;25.58;43.32;94163.41;4989625;28;9414;-62
2023/10/16 13:17:25;;;;;;;;;;;;;;;25.62;43.39;94165.88;5000739;28;9161;-62
2023/10/16 13:19:51;;;;;;;;;;;;;;;25.62;43.59;94155.59;4997665;28;8757;-62
2023/10/16 13:22:20;;;;;;;;;;;;;;;25.66;43.36;94161.59;5000038;28;7222;-63
2023/10/16 13:24:46;;;;;;;;;;;;;;;25.67;44.01;94145.78;5000319;28;7623;-62
2023/10/16 13:27:16;;;;;;;;;;;;;;;25.70;43.82;94156.53;4988667;28;8421;-62
2023/10/16 13:29:43;;;;;;;;;;;;;;;25.72;43.79;94159.50;4980052;28;8833;-62
2023/10/16 13:32:10;;;;;;;;;;;;;;;25.74;43.50;94145.97;4982551;28;9209;-63
2023/10/16 13:34:47;;;;;;;;;;;;;;;25.78;43.58;94162.94;4996967;28;9090;-61
2023/10/16 13:37:18;;;;;;;;;;;;;;;25.76;43.16;94142.69;5000403;28;9200;-62
2023/10/16 13:40:00;;;;;;;;;;;;;;;25.80;43.86;94151.41;4985571;28;9138;-62
2023/10/16 13:42:28;;;;;;;;;;;;;;;25.82;43.37;94152.38;4991750;28;8544;-61
2023/10/16 13:45:11;;;;;;;;;;;;;;;25.85;42.96;94154.09;4999717;28;9047;-63
2023/10/16 13:47:53;;;;;;;;;;;;;;;25.88;43.07;94149.56;4991527;28;6993;-63
2023/10/16 13:50:25;;;;;;;;;;;;;;;25.89;43.75;94143.53;5023894;28;7464;-63
2023/10/16 13:53:26;;;;;;;;;;;;;;;25.90;43.77;94136.75;5088157;28;7229;-63
2023/10/16 13:56:17;;;;;;;;;;;;;;;25.94;43.46;94134.47;5019897;28;7062;-63
2023/10/16 13:58:49;;;;;;;;;;;;;;;25.97;43.66;94138.94;4995149;28;7223;-63
2023/10/16 14:01:49;;;;;;;;;;;;;;;25.98;43.23;94132.16;5014876;28;7447;-63
2023/10/16 14:04:21;;;;;;;;;;;;;;;26.02;42.93;94134.59;4968382;28;7272;-63
2023/10/16 14:06:56;;;;;;;;;;;;;;;26.03;43.00;94130.59;4982794;28;8784;-63
2023/10/16 14:09:33;;;;;;;;;;;;;;;26.06;43.19;94133.06;4971229;28;7072;-63
2023/10/16 14:12:17;;;;;;;;;;;;;;;26.07;43.13;94129.03;4951173;28;7048;-63
2023/10/16 14:14:51;;;;;;;;;;;;;;;26.10;43.00;94128.03;4975640;28;7505;-63
2023/10/16 14:17:37;;;;;;;;;;;;;;;26.12;43.20;94127.53;4970370;28;7325;-63
2023/10/16 14:20:34;;;;;;;;;;;;;;;26.19;42.93;94123.41;4945655;28;9145;-63
2023/10/16 14:23:01;;;;;;;;;;;;;;;26.21;43.15;94129.16;4968253;28;7074;-63
2023/10/16 14:25:41;;;;;;;;;;;;;;;26.23;42.94;94130.09;4974875;28;7358;-63
2023/10/16 14:31:08;;;;;;;;;;;;;;;26.29;42.57;94122.53;5003233;28;7241;-63
2023/10/16 14:33:36;;;;;;;;;;;;;;;26.28;42.71;94115.50;5014124;28;7538;-63
2023/10/16 14:36:34;;;;;;;;;;;;;;;26.33;42.84;94122.97;4987287;28;8766;-63
2023/10/16 14:39:04;;;;;;;;;;;;;;;26.35;42.78;94125.94;4987720;28;7021;-63
2023/10/16 14:41:31;;;;;;;;;;;;;;;26.36;42.74;94127.41;5041140;28;7532;-63
2023/10/16 14:43:59;;;;;;;;;;;;;;;26.39;42.44;94123.63;5066420;28;7064;-63
2023/10/16 14:46:26;;;;;;;;;;;;;;;26.40;42.75;94129.91;5094365;28;7048;-63
2023/10/16 14:48:57;;;;;;;;;;;;;;;26.43;42.56;94123.31;5047405;28;7253;-63
2023/10/16 14:51:25;;;;;;;;;;;;;;;26.46;42.65;94125.78;5051016;28;7043;-63
2023/10/16 14:53:55;;;;;;;;;;;;;;;26.49;42.45;94126.78;5065469;28;7638;-63
2023/10/16 14:56:22;;;;;;;;;;;;;;;26.50;42.48;94125.50;5069335;28;7215;-63
2023/10/16 14:58:54;;;;;;;;;;;;;;;26.47;43.23;94124.50;5054337;28;6966;-63
2023/10/16 15:01:27;;;;;;;;;;;;;;;26.52;42.67;94133.97;5051137;28;8801;-63
2023/10/16 15:03:56;;;;;;;;;;;;;;;26.52;42.47;94128.47;5075105;28;7007;-63
2023/10/16 15:06:24;;;;;;;;;;;;;;;26.54;42.68;94132.19;5044906;28;7284;-63
2023/10/16 15:09:09;;;;;;;;;;;;;;;26.55;42.65;94130.94;5065365;28;7261;-62
2023/10/16 15:11:40;;;;;;;;;;;;;;;26.58;42.89;94138.16;5047492;28;9490;-63
2023/10/16 15:14:13;;;;;;;;;;;;;;;26.58;42.22;94124.34;5085723;28;7073;-63
2023/10/16 15:16:39;;;;;;;;;;;;;;;26.55;42.38;94121.91;5085130;28;9292;-63
2023/10/16 15:19:26;;;;;;;;;;;;;;;26.57;42.31;94128.41;5053566;28;9087;-63
2023/10/16 15:22:09;;;;;;;;;;;;;;;26.60;42.62;94130.09;5062698;28;7005;-62
2023/10/16 15:24:43;;;;;;;;;;;;;;;26.58;42.47;94127.13;5037462;28;6925;-63
2023/10/16 15:27:46;;;;;;;;;;;;;;;26.62;42.33;94121.31;5053519;28;7376;-63
2023/10/16 15:30:24;;;;;;;;;;;;;;;26.61;42.58;94126.06;5014368;28;7202;-63
2023/10/16 15:32:50;;;;;;;;;;;;;;;26.61;42.44;94128.09;5034582;28;9137;-62
2023/10/16 15:35:26;;;;;;;;;;;;;;;26.59;42.31;94125.09;5015421;28;7421;-63
2023/10/16 15:37:56;;;;;;;;;;;;;;;26.60;42.49;94124.56;5038820;28;8978;-62